createdAt,value
2022-10-06T00:00:29.282Z,88.91
2022-10-06T00:01:26.814Z,89.22
2022-10-06T00:03:48.939Z,89.01
2022-10-06T00:06:32.476Z,89.52
2022-10-06T00:07:32.930Z,89.42
2022-10-06T00:08:32.973Z,89.72
2022-10-06T00:09:31.976Z,89.83
2022-10-06T00:10:32.175Z,89.83
2022-10-06T00:11:31.503Z,89.87
2022-10-06T00:12:32.306Z,90.17
2022-10-06T00:13:31.545Z,90.13
2022-10-06T00:14:31.468Z,89.92
2022-10-06T00:15:33.770Z,89.83
2022-10-06T00:16:32.589Z,89.92
2022-10-06T00:17:32.229Z,89.83
2022-10-06T00:18:33.742Z,90.03
2022-10-06T00:20:56.067Z,90.13
2022-10-06T00:21:56.019Z,90.03
2022-10-06T00:22:56.610Z,89.92
2022-10-06T00:23:55.608Z,90.03
2022-10-06T00:24:55.257Z,90.13
2022-10-06T00:25:55.579Z,90.23
2022-10-06T00:26:55.353Z,90.03
2022-10-06T00:27:55.841Z,90.23
2022-10-06T00:28:55.330Z,90.33
2022-10-06T00:29:56.447Z,90.33
2022-10-06T00:30:55.796Z,90.53
2022-10-06T00:31:55.031Z,90.44
2022-10-06T00:32:55.298Z,90.44
2022-10-06T00:33:54.962Z,90.64
2022-10-06T00:34:56.107Z,90.53
2022-10-06T00:35:55.671Z,90.33
2022-10-06T00:36:57.419Z,90.64
2022-10-06T00:37:55.102Z,90.74
2022-10-06T00:38:54.967Z,90.84
2022-10-06T00:39:55.211Z,90.84
2022-10-06T00:40:55.543Z,91.25
2022-10-06T00:41:54.965Z,91.25
2022-10-06T00:42:54.888Z,91.25
2022-10-06T00:44:05.555Z,91.05
2022-10-06T00:44:55.856Z,90.94
2022-10-06T00:45:54.828Z,90.94
2022-10-06T00:46:56.702Z,91.05
2022-10-06T00:47:59.529Z,91.55
2022-10-06T00:48:56.193Z,91.80
2022-10-06T00:49:54.892Z,91.90
2022-10-06T00:50:54.949Z,91.80
2022-10-06T00:51:56.943Z,91.80
2022-10-06T00:52:55.486Z,91.80
2022-10-06T00:53:54.949Z,92.21
2022-10-06T00:54:55.151Z,92.00
2022-10-06T00:55:54.715Z,91.90
2022-10-06T00:56:59.897Z,92.10
2022-10-06T00:57:54.711Z,92.41
2022-10-06T00:59:02.656Z,92.30
2022-10-06T01:01:19.032Z,92.51
2022-10-06T01:02:21.128Z,92.51
2022-10-06T01:03:19.156Z,92.61
2022-10-06T01:04:17.963Z,92.71
2022-10-06T01:05:21.886Z,92.91
2022-10-06T01:06:18.974Z,93.06
2022-10-06T01:07:19.169Z,92.76
2022-10-06T01:08:23.603Z,92.61
2022-10-06T01:10:59.475Z,92.61
2022-10-06T01:11:41.591Z,92.86
2022-10-06T01:12:38.401Z,92.96
2022-10-06T01:13:39.730Z,93.26
2022-10-06T01:14:38.863Z,93.26
2022-10-06T01:15:39.059Z,93.26
2022-10-06T01:16:39.159Z,93.26
2022-10-06T01:17:52.870Z,93.16
2022-10-06T01:18:39.933Z,93.06
2022-10-06T01:19:38.450Z,93.26
2022-10-06T01:20:38.690Z,93.57
2022-10-06T01:21:38.651Z,93.57
2022-10-06T01:22:38.091Z,93.67
2022-10-06T01:23:38.328Z,93.57
2022-10-06T01:24:38.361Z,93.67
2022-10-06T01:25:39.488Z,93.67
2022-10-06T01:26:38.250Z,93.67
2022-10-06T01:27:47.414Z,93.67
2022-10-06T01:28:50.017Z,93.57
2022-10-06T01:29:38.904Z,93.47
2022-10-06T01:30:38.120Z,93.47
2022-10-06T01:31:38.347Z,93.47
2022-10-06T01:32:38.615Z,93.26
2022-10-06T01:33:38.404Z,93.57
2022-10-06T01:34:38.098Z,93.57
2022-10-06T01:35:39.854Z,93.82
2022-10-06T01:36:39.038Z,93.82
2022-10-06T01:37:38.162Z,93.92
2022-10-06T01:38:38.933Z,93.92
2022-10-06T01:39:38.102Z,93.92
2022-10-06T01:40:37.985Z,93.82
2022-10-06T01:41:37.970Z,93.71
2022-10-06T01:42:38.150Z,93.71
2022-10-06T01:43:38.171Z,93.92
2022-10-06T01:44:55.753Z,94.02
2022-10-06T01:45:37.822Z,94.12
2022-10-06T01:46:38.142Z,94.12
2022-10-06T01:47:38.278Z,94.02
2022-10-06T01:48:37.845Z,93.92
2022-10-06T01:49:48.904Z,94.12
2022-10-06T01:50:38.474Z,94.02
2022-10-06T01:51:38.054Z,93.82
2022-10-06T01:52:37.908Z,93.71
2022-10-06T01:53:39.136Z,93.62
2022-10-06T01:54:44.698Z,93.51
2022-10-06T01:55:44.625Z,93.41
2022-10-06T01:56:38.346Z,93.31
2022-10-06T01:57:37.895Z,93.21
2022-10-06T01:58:38.146Z,93.31
2022-10-06T01:59:37.598Z,93.21
2022-10-06T02:00:39.270Z,93.10
2022-10-06T02:01:38.930Z,92.90
2022-10-06T02:02:37.609Z,93.10
2022-10-06T02:03:37.739Z,93.25
2022-10-06T02:04:38.238Z,93.15
2022-10-06T02:05:37.740Z,93.01
2022-10-06T02:06:38.028Z,92.60
2022-10-06T02:07:37.901Z,92.60
2022-10-06T02:08:37.904Z,92.54
2022-10-06T02:09:41.626Z,92.54
2022-10-06T02:10:37.854Z,92.33
2022-10-06T02:11:41.867Z,92.44
2022-10-06T02:12:40.278Z,92.33
2022-10-06T02:13:38.270Z,92.13
2022-10-06T02:14:37.862Z,91.93
2022-10-06T02:15:37.530Z,91.93
2022-10-06T02:16:42.100Z,91.93
2022-10-06T02:17:37.801Z,91.83
2022-10-06T02:18:37.669Z,91.93
2022-10-06T02:19:37.395Z,91.62
2022-10-06T02:20:37.952Z,91.52
2022-10-06T02:21:38.925Z,91.52
2022-10-06T02:22:40.433Z,91.31
2022-10-06T02:23:37.486Z,91.11
2022-10-06T02:24:37.363Z,91.01
2022-10-06T02:25:44.221Z,90.81
2022-10-06T02:26:37.352Z,90.70
2022-10-06T02:27:37.332Z,90.91
2022-10-06T02:28:37.418Z,90.81
2022-10-06T02:29:38.466Z,90.91
2022-10-06T02:30:37.707Z,90.91
2022-10-06T02:31:39.533Z,90.81
2022-10-06T02:32:38.346Z,90.70
2022-10-06T02:33:37.841Z,90.40
2022-10-06T02:34:37.805Z,90.44
2022-10-06T02:35:37.415Z,90.55
2022-10-06T02:36:37.716Z,90.44
2022-10-06T02:37:37.643Z,90.34
2022-10-06T02:38:37.544Z,90.44
2022-10-06T02:39:37.146Z,90.44
2022-10-06T02:40:37.202Z,90.44
2022-10-06T02:41:37.110Z,90.44
2022-10-06T02:42:37.161Z,90.34
2022-10-06T02:43:37.488Z,90.24
2022-10-06T02:44:37.080Z,90.55
2022-10-06T02:45:37.154Z,90.34
2022-10-06T02:46:37.217Z,90.44
2022-10-06T02:47:36.992Z,90.44
2022-10-06T02:48:37.323Z,90.34
2022-10-06T02:49:39.276Z,90.24
2022-10-06T02:50:37.036Z,90.34
2022-10-06T02:51:40.013Z,90.44
2022-10-06T02:52:37.477Z,90.44
2022-10-06T02:53:36.932Z,90.55
2022-10-06T02:54:36.941Z,90.55
2022-10-06T02:55:37.108Z,90.55
2022-10-06T02:56:37.041Z,90.59
2022-10-06T02:57:37.203Z,90.59
2022-10-06T02:58:37.048Z,90.69
2022-10-06T02:59:39.154Z,90.89
2022-10-06T03:00:36.797Z,90.89
2022-10-06T03:01:37.052Z,90.99
2022-10-06T03:02:36.885Z,90.99
2022-10-06T03:03:36.863Z,90.89
2022-10-06T03:04:37.199Z,90.69
2022-10-06T03:05:36.921Z,90.79
2022-10-06T03:06:36.752Z,91.09
2022-10-06T03:07:47.346Z,91.09
2022-10-06T03:08:36.819Z,90.99
2022-10-06T03:09:39.321Z,90.99
2022-10-06T03:10:37.263Z,90.99
2022-10-06T03:11:36.672Z,90.99
2022-10-06T03:12:36.937Z,90.99
2022-10-06T03:13:36.727Z,90.99
2022-10-06T03:14:36.678Z,90.89
2022-10-06T03:15:36.789Z,90.79
2022-10-06T03:16:36.767Z,90.79
2022-10-06T03:17:36.781Z,90.83
2022-10-06T03:18:36.805Z,90.94
2022-10-06T03:19:36.694Z,90.94
2022-10-06T03:20:36.734Z,90.94
2022-10-06T03:21:36.690Z,90.94
2022-10-06T03:22:36.701Z,90.94
2022-10-06T03:23:36.704Z,91.03
2022-10-06T03:24:36.658Z,90.94
2022-10-06T03:25:36.551Z,90.94
2022-10-06T03:26:36.659Z,91.14
2022-10-06T03:27:36.437Z,91.14
2022-10-06T03:28:36.507Z,91.14
2022-10-06T03:29:37.159Z,90.94
2022-10-06T03:30:36.510Z,90.94
2022-10-06T03:31:36.610Z,90.94
2022-10-06T03:32:36.506Z,90.83
2022-10-06T03:33:36.480Z,91.08
2022-10-06T03:34:36.569Z,90.98
2022-10-06T03:35:36.477Z,90.88
2022-10-06T03:36:36.285Z,90.88
2022-10-06T03:37:36.397Z,91.08
2022-10-06T03:38:36.389Z,90.98
2022-10-06T03:39:36.302Z,90.98
2022-10-06T03:40:36.345Z,90.88
2022-10-06T03:41:36.259Z,90.77
2022-10-06T03:42:36.380Z,90.67
2022-10-06T03:43:36.246Z,90.67
2022-10-06T03:44:36.225Z,90.47
2022-10-06T03:45:40.325Z,90.36
2022-10-06T03:46:36.578Z,90.57
2022-10-06T03:47:36.167Z,90.67
2022-10-06T03:48:36.254Z,90.77
2022-10-06T03:49:39.788Z,90.88
2022-10-06T03:50:36.324Z,90.77
2022-10-06T03:51:36.127Z,90.67
2022-10-06T03:52:36.142Z,90.77
2022-10-06T03:53:36.248Z,90.67
2022-10-06T03:54:36.216Z,90.67
2022-10-06T03:55:36.346Z,90.67
2022-10-06T03:56:38.385Z,90.61
2022-10-06T03:57:36.083Z,90.61
2022-10-06T03:58:36.074Z,90.31
2022-10-06T03:59:36.345Z,90.06
2022-10-06T04:00:36.079Z,90.06
2022-10-06T04:01:36.617Z,89.86
2022-10-06T04:02:36.156Z,90.06
2022-10-06T04:03:37.243Z,90.00
2022-10-06T04:04:36.345Z,90.20
2022-10-06T04:05:37.472Z,90.20
2022-10-06T04:06:36.340Z,90.00
2022-10-06T04:07:36.098Z,90.00
2022-10-06T04:08:36.591Z,90.00
2022-10-06T04:09:36.029Z,89.79
2022-10-06T04:10:36.298Z,89.90
2022-10-06T04:11:36.116Z,89.69
2022-10-06T04:12:36.199Z,89.69
2022-10-06T04:14:59.845Z,89.28
2022-10-06T04:15:55.645Z,89.18
2022-10-06T04:16:53.869Z,89.08
2022-10-06T04:17:53.933Z,88.98
2022-10-06T04:18:54.604Z,89.18
2022-10-06T04:19:53.730Z,89.28
2022-10-06T04:20:53.826Z,89.08
2022-10-06T04:21:53.815Z,89.08
2022-10-06T04:22:54.008Z,89.18
2022-10-06T04:23:53.744Z,89.28
2022-10-06T04:24:54.573Z,89.39
2022-10-06T04:25:56.024Z,89.49
2022-10-06T04:26:54.851Z,89.18
2022-10-06T04:27:54.199Z,88.98
2022-10-06T04:28:53.666Z,88.98
2022-10-06T04:29:53.740Z,88.98
2022-10-06T04:30:54.175Z,89.28
2022-10-06T04:31:53.793Z,88.98
2022-10-06T04:32:53.642Z,88.98
2022-10-06T04:33:53.977Z,88.78
2022-10-06T04:34:53.546Z,88.88
2022-10-06T04:35:53.534Z,88.98
2022-10-06T04:36:53.737Z,89.18
2022-10-06T04:37:53.610Z,89.18
2022-10-06T04:38:53.629Z,89.08
2022-10-06T04:39:53.677Z,88.98
2022-10-06T04:42:14.859Z,89.18
2022-10-06T04:43:13.179Z,89.18
2022-10-06T04:44:12.590Z,89.23
2022-10-06T04:45:12.481Z,89.23
2022-10-06T04:46:41.071Z,89.23
2022-10-06T04:47:13.640Z,89.23
2022-10-06T04:48:12.626Z,89.43
2022-10-06T04:49:19.077Z,89.63
2022-10-06T04:50:13.464Z,89.63
2022-10-06T04:51:12.369Z,89.63
2022-10-06T04:52:12.551Z,89.53
2022-10-06T04:53:12.498Z,89.53
2022-10-06T04:54:12.432Z,89.43
2022-10-06T04:55:12.882Z,89.32
2022-10-06T04:56:12.321Z,89.32
2022-10-06T04:57:12.591Z,89.32
2022-10-06T04:58:13.434Z,89.43
2022-10-06T04:59:12.504Z,89.43
2022-10-06T05:00:14.962Z,89.43
2022-10-06T05:01:12.446Z,89.43
2022-10-06T05:02:12.369Z,89.32
2022-10-06T05:03:14.257Z,89.53
2022-10-06T05:04:12.364Z,89.32
2022-10-06T05:05:12.357Z,89.43
2022-10-06T05:06:12.440Z,89.43
2022-10-06T05:07:12.648Z,89.43
2022-10-06T05:08:12.683Z,89.43
2022-10-06T05:09:12.589Z,89.67
2022-10-06T05:10:12.512Z,89.78
2022-10-06T05:11:15.198Z,89.67
2022-10-06T05:12:13.218Z,89.67
2022-10-06T05:13:12.283Z,89.78
2022-10-06T05:14:12.194Z,89.78
2022-10-06T05:15:14.494Z,89.78
2022-10-06T05:16:12.352Z,89.67
2022-10-06T05:17:12.355Z,89.67
2022-10-06T05:18:12.352Z,89.67
2022-10-06T05:19:13.374Z,89.67
2022-10-06T05:20:12.301Z,89.58
2022-10-06T05:21:12.097Z,89.67
2022-10-06T05:22:13.945Z,89.78
2022-10-06T05:23:12.056Z,89.78
2022-10-06T05:24:12.711Z,89.78
2022-10-06T05:25:13.017Z,89.78
2022-10-06T05:26:15.770Z,89.67
2022-10-06T05:27:22.691Z,89.67
2022-10-06T05:28:28.668Z,89.88
2022-10-06T05:29:14.087Z,89.88
2022-10-06T05:30:14.158Z,89.88
2022-10-06T05:31:13.329Z,90.08
2022-10-06T05:32:11.952Z,90.29
2022-10-06T05:33:13.126Z,90.08
2022-10-06T05:34:15.691Z,89.98
2022-10-06T05:35:12.697Z,89.98
2022-10-06T05:36:14.270Z,90.19
2022-10-06T05:37:12.170Z,90.29
2022-10-06T05:38:13.744Z,90.33
2022-10-06T05:39:12.681Z,90.33
2022-10-06T05:40:13.097Z,90.33
2022-10-06T05:41:12.683Z,90.33
2022-10-06T05:42:12.417Z,90.43
2022-10-06T05:43:12.571Z,90.53
2022-10-06T05:44:13.196Z,90.53
2022-10-06T05:45:13.179Z,90.64
2022-10-06T05:46:13.109Z,90.64
2022-10-06T05:47:13.045Z,90.64
2022-10-06T05:48:13.543Z,90.43
2022-10-06T05:49:12.944Z,90.64
2022-10-06T05:50:13.676Z,90.64
2022-10-06T05:51:12.666Z,90.53
2022-10-06T05:52:12.020Z,90.43
2022-10-06T05:53:13.216Z,90.43
2022-10-06T05:54:12.801Z,90.33
2022-10-06T05:55:12.249Z,90.33
2022-10-06T05:58:25.192Z,90.43
2022-10-06T06:03:23.044Z,90.53
2022-10-06T06:04:22.184Z,90.43
2022-10-06T06:05:21.868Z,90.53
2022-10-06T06:06:21.837Z,90.53
2022-10-06T06:07:21.805Z,90.53
2022-10-06T06:08:21.852Z,90.53
2022-10-06T06:09:21.792Z,90.64
2022-10-06T06:10:21.808Z,90.64
2022-10-06T06:11:21.736Z,90.59
2022-10-06T06:12:21.834Z,90.74
2022-10-06T06:13:21.855Z,90.64
2022-10-06T06:14:21.734Z,90.70
2022-10-06T06:15:22.991Z,90.70
2022-10-06T06:16:23.263Z,90.59
2022-10-06T06:17:21.893Z,90.70
2022-10-06T06:18:27.953Z,90.70
2022-10-06T06:19:24.897Z,90.59
2022-10-06T06:20:23.512Z,90.49
2022-10-06T06:21:25.388Z,90.49
2022-10-06T06:22:22.392Z,90.39
2022-10-06T06:23:23.384Z,90.39
2022-10-06T06:24:25.238Z,90.49
2022-10-06T06:25:23.196Z,90.29
2022-10-06T06:26:22.952Z,90.19
2022-10-06T06:27:25.385Z,90.59
2022-10-06T06:28:23.607Z,90.49
2022-10-06T06:29:28.877Z,90.39
2022-10-06T06:31:53.093Z,89.98
2022-10-06T06:32:54.551Z,90.39
2022-10-06T06:33:53.828Z,90.39
2022-10-06T06:34:52.806Z,90.39
2022-10-06T06:35:52.400Z,90.70
2022-10-06T06:36:53.625Z,90.59
2022-10-06T06:37:52.001Z,90.19
2022-10-06T06:38:52.877Z,89.98
2022-10-06T06:39:54.666Z,90.19
2022-10-06T06:40:53.387Z,89.98
2022-10-06T06:41:52.211Z,89.98
2022-10-06T06:42:53.964Z,89.98
2022-10-06T06:43:53.809Z,90.08
2022-10-06T06:46:48.410Z,89.94
2022-10-06T06:47:45.129Z,90.08
2022-10-06T06:48:45.141Z,89.67
2022-10-06T06:49:44.827Z,89.43
2022-10-06T06:50:45.880Z,89.43
2022-10-06T06:51:43.472Z,89.23
2022-10-06T06:52:46.040Z,89.23
2022-10-06T06:53:46.557Z,89.32
2022-10-06T06:54:43.372Z,89.43
2022-10-06T06:55:43.172Z,89.08
2022-10-06T06:56:44.355Z,88.78
2022-10-06T06:57:45.813Z,88.78
2022-10-06T06:58:50.562Z,88.98
2022-10-06T06:59:44.671Z,88.67
2022-10-06T07:00:44.788Z,88.78
2022-10-06T07:01:45.955Z,88.67
2022-10-06T07:02:43.841Z,88.57
2022-10-06T07:03:57.002Z,88.57
2022-10-06T07:04:44.633Z,88.88
2022-10-06T07:05:45.460Z,88.78
2022-10-06T07:06:43.175Z,88.47
2022-10-06T07:07:42.936Z,88.88
2022-10-06T07:08:43.251Z,88.73
2022-10-06T07:09:45.892Z,88.57
2022-10-06T07:10:43.040Z,88.12
2022-10-06T07:11:43.148Z,87.92
2022-10-06T07:12:42.729Z,88.02
2022-10-06T07:13:42.905Z,88.32
2022-10-06T07:14:43.361Z,88.26
2022-10-06T07:15:43.530Z,87.92
2022-10-06T07:16:44.089Z,88.12
2022-10-06T07:17:45.235Z,87.82
2022-10-06T07:18:44.342Z,87.71
2022-10-06T07:19:47.275Z,87.61
2022-10-06T07:20:47.549Z,87.61
2022-10-06T07:21:43.850Z,87.71
2022-10-06T07:22:45.318Z,87.71
2022-10-06T07:23:45.948Z,87.82
2022-10-06T07:26:06.272Z,87.71
2022-10-06T07:27:06.702Z,87.92
2022-10-06T07:28:00.880Z,87.51
2022-10-06T07:29:02.509Z,87.61
2022-10-06T07:30:01.527Z,87.57
2022-10-06T07:31:02.266Z,87.06
2022-10-06T07:32:01.778Z,86.86
2022-10-06T07:33:00.276Z,86.55
2022-10-06T07:34:05.392Z,86.35
2022-10-06T07:35:01.013Z,86.21
2022-10-06T07:36:03.602Z,86.61
2022-10-06T07:37:07.730Z,86.21
2022-10-06T07:38:00.433Z,86.10
2022-10-06T07:39:00.270Z,85.90
2022-10-06T07:40:00.922Z,86.21
2022-10-06T07:42:03.078Z,85.39
2022-10-06T07:43:01.217Z,85.28
2022-10-06T07:44:04.561Z,85.19
2022-10-06T07:45:03.578Z,85.60
2022-10-06T07:46:04.497Z,85.69
2022-10-06T07:47:01.515Z,85.49
2022-10-06T07:48:02.618Z,85.39
2022-10-06T07:49:04.528Z,85.08
2022-10-06T07:50:00.896Z,85.08
2022-10-06T07:51:02.158Z,84.67
2022-10-06T07:52:00.390Z,84.67
2022-10-06T07:53:01.935Z,85.14
2022-10-06T07:54:00.414Z,84.94
2022-10-06T07:55:01.129Z,84.53
2022-10-06T07:56:00.204Z,84.39
2022-10-06T07:57:01.683Z,82.76
2022-10-06T07:58:07.036Z,83.37
2022-10-06T07:59:01.128Z,83.54
2022-10-06T08:00:03.353Z,83.03
2022-10-06T08:01:00.684Z,82.42
2022-10-06T08:02:02.923Z,81.20
2022-10-06T08:03:24.518Z,81.40
2022-10-06T08:04:09.420Z,81.91
2022-10-06T08:05:08.946Z,82.12
2022-10-06T08:05:59.805Z,82.12
2022-10-06T08:07:00.631Z,81.65
2022-10-06T08:08:00.848Z,81.71
2022-10-06T08:09:00.671Z,82.01
2022-10-06T08:10:00.920Z,81.77
2022-10-06T08:11:01.684Z,80.37
2022-10-06T08:11:59.886Z,79.42
2022-10-06T08:12:59.671Z,78.61
2022-10-06T08:14:00.296Z,78.41
2022-10-06T08:15:09.624Z,78.34
2022-10-06T08:16:16.519Z,78.61
2022-10-06T08:16:59.701Z,78.41
2022-10-06T08:18:00.247Z,78.20
2022-10-06T08:19:00.051Z,78.64
2022-10-06T08:20:02.771Z,78.44
2022-10-06T08:21:03.554Z,78.89
2022-10-06T08:22:04.964Z,79.19
2022-10-06T08:23:03.214Z,78.99
2022-10-06T08:24:00.177Z,79.39
2022-10-06T08:25:07.472Z,79.29
2022-10-06T08:26:01.377Z,79.19
2022-10-06T08:26:59.374Z,80.21
2022-10-06T08:28:00.237Z,79.16
2022-10-06T08:29:01.869Z,78.30
2022-10-06T08:30:02.948Z,77.76
2022-10-06T08:31:02.879Z,77.01
2022-10-06T08:32:03.507Z,76.31
2022-10-06T08:32:59.479Z,76.14
2022-10-06T08:34:12.181Z,76.54
2022-10-06T08:34:59.537Z,77.39
2022-10-06T08:36:00.242Z,78.20
2022-10-06T08:38:54.207Z,78.24
2022-10-06T08:39:49.126Z,78.75
2022-10-06T08:40:48.625Z,78.64
2022-10-06T08:41:47.237Z,78.24
2022-10-06T08:42:47.657Z,78.75
2022-10-06T08:43:46.382Z,78.55
2022-10-06T08:44:46.498Z,78.55
2022-10-06T08:45:48.651Z,77.43
2022-10-06T08:46:52.440Z,77.94
2022-10-06T08:47:46.421Z,77.94
2022-10-06T08:48:46.570Z,78.24
2022-10-06T08:49:46.653Z,78.04
2022-10-06T08:50:46.385Z,77.70
2022-10-06T08:51:49.407Z,77.90
2022-10-06T08:52:50.241Z,78.10
2022-10-06T08:53:48.649Z,78.30
2022-10-06T08:54:48.093Z,77.70
2022-10-06T08:55:48.251Z,77.19
2022-10-06T08:56:49.009Z,77.49
2022-10-06T08:59:24.016Z,77.49
2022-10-06T09:00:11.281Z,77.59
2022-10-06T09:01:12.410Z,77.70
2022-10-06T09:02:14.670Z,76.28
2022-10-06T09:03:14.025Z,76.37
2022-10-06T09:04:31.589Z,76.37
2022-10-06T09:05:10.267Z,76.58
2022-10-06T09:06:14.202Z,77.09
2022-10-06T09:07:15.165Z,76.88
2022-10-06T09:08:10.471Z,76.28
2022-10-06T09:09:16.839Z,76.37
2022-10-06T09:10:12.194Z,76.78
2022-10-06T09:11:14.433Z,77.25
2022-10-06T09:12:14.250Z,76.24
2022-10-06T09:13:11.743Z,75.93
2022-10-06T09:14:12.162Z,75.43
2022-10-06T09:15:11.252Z,74.71
2022-10-06T09:16:11.163Z,75.09
2022-10-06T09:17:15.264Z,74.98
2022-10-06T09:18:49.468Z,75.79
2022-10-06T09:19:12.381Z,74.88
2022-10-06T09:20:17.791Z,74.88
2022-10-06T09:21:10.915Z,73.66
2022-10-06T09:22:14.359Z,73.53
2022-10-06T09:23:09.656Z,73.22
2022-10-06T09:24:09.701Z,73.63
2022-10-06T09:25:11.780Z,74.04
2022-10-06T09:26:18.141Z,74.04
2022-10-06T09:27:11.326Z,73.93
2022-10-06T09:28:10.036Z,74.48
2022-10-06T09:29:13.504Z,74.88
2022-10-06T09:30:13.689Z,74.17
2022-10-06T09:31:12.005Z,74.27
2022-10-06T09:32:09.953Z,73.16
2022-10-06T09:33:10.580Z,73.26
2022-10-06T09:34:11.289Z,73.77
2022-10-06T09:35:09.949Z,73.83
2022-10-06T09:36:13.129Z,73.57
2022-10-06T09:37:14.745Z,72.45
2022-10-06T09:38:12.193Z,72.14
2022-10-06T09:39:12.363Z,72.34
2022-10-06T09:40:10.334Z,72.14
2022-10-06T09:41:12.186Z,72.52
2022-10-06T09:42:13.080Z,72.82
2022-10-06T09:43:13.338Z,72.72
2022-10-06T09:44:12.546Z,72.48
2022-10-06T09:45:13.198Z,72.48
2022-10-06T09:47:12.431Z,72.75
2022-10-06T09:48:10.588Z,71.44
2022-10-06T09:49:09.969Z,71.09
2022-10-06T09:50:10.120Z,71.53
2022-10-06T09:51:11.339Z,71.09
2022-10-06T09:52:12.626Z,69.98
2022-10-06T09:53:09.328Z,70.39
2022-10-06T09:54:10.973Z,70.89
2022-10-06T09:55:13.746Z,70.79
2022-10-06T09:56:09.397Z,70.89
2022-10-06T09:57:09.340Z,70.49
2022-10-06T09:58:11.820Z,69.65
2022-10-06T09:59:12.008Z,69.34
2022-10-06T10:00:12.926Z,69.21
2022-10-06T10:01:11.390Z,67.99
2022-10-06T10:02:10.603Z,66.67
2022-10-06T10:03:14.091Z,66.91
2022-10-06T10:04:26.763Z,67.52
2022-10-06T10:05:10.496Z,68.02
2022-10-06T10:06:14.541Z,68.26
2022-10-06T10:10:39.930Z,66.71
2022-10-06T10:11:15.780Z,67.35
2022-10-06T10:12:14.189Z,68.46
2022-10-06T10:13:14.569Z,68.16
2022-10-06T10:14:14.668Z,67.96
2022-10-06T10:15:16.356Z,67.55
2022-10-06T10:16:14.213Z,67.55
2022-10-06T10:17:14.682Z,67.96
2022-10-06T10:18:14.015Z,68.16
2022-10-06T10:19:14.042Z,69.27
2022-10-06T10:20:16.764Z,68.66
2022-10-06T10:21:15.931Z,66.74
2022-10-06T10:22:13.887Z,67.35
2022-10-06T10:23:15.100Z,65.93
2022-10-06T10:24:14.038Z,66.03
2022-10-06T10:25:14.431Z,66.30
2022-10-06T10:26:15.250Z,65.29
2022-10-06T10:27:14.636Z,64.69
2022-10-06T10:28:14.533Z,66.03
2022-10-06T10:29:15.220Z,66.33
2022-10-06T10:30:16.208Z,66.13
2022-10-06T10:31:15.139Z,66.44
2022-10-06T10:32:14.691Z,66.33
2022-10-06T10:33:15.715Z,66.54
2022-10-06T10:34:24.022Z,66.13
2022-10-06T10:35:15.442Z,66.33
2022-10-06T10:36:13.809Z,66.64
2022-10-06T10:37:13.920Z,66.24
2022-10-06T10:38:27.530Z,66.50
2022-10-06T10:39:14.799Z,66.50
2022-10-06T10:40:26.017Z,66.50
2022-10-06T10:41:15.673Z,67.01
2022-10-06T10:42:14.465Z,66.91
2022-10-06T10:43:14.866Z,66.58
2022-10-06T10:44:14.820Z,65.39
2022-10-06T10:45:14.955Z,65.59
2022-10-06T10:46:13.477Z,66.10
2022-10-06T10:47:13.403Z,66.38
2022-10-06T10:48:13.783Z,65.87
2022-10-06T10:49:13.694Z,66.47
2022-10-06T10:50:17.407Z,64.65
2022-10-06T10:51:13.852Z,64.86
2022-10-06T10:52:14.094Z,64.86
2022-10-06T10:53:21.234Z,66.58
2022-10-06T10:54:13.511Z,66.58
2022-10-06T10:55:16.376Z,65.97
2022-10-06T10:56:14.810Z,65.03
2022-10-06T10:57:14.568Z,64.93
2022-10-06T10:58:14.407Z,64.42
2022-10-06T10:59:20.198Z,65.03
2022-10-06T11:00:14.508Z,64.73
2022-10-06T11:01:13.394Z,64.62
2022-10-06T11:02:13.273Z,63.61
2022-10-06T11:03:13.394Z,62.02
2022-10-06T11:04:18.841Z,63.07
2022-10-06T11:05:14.146Z,64.07
2022-10-06T11:06:15.348Z,64.04
2022-10-06T11:07:15.145Z,63.84
2022-10-06T11:08:16.656Z,62.63
2022-10-06T11:09:13.489Z,61.92
2022-10-06T11:10:15.184Z,62.84
2022-10-06T11:11:17.003Z,62.63
2022-10-06T11:12:16.089Z,64.15
2022-10-06T11:13:14.314Z,64.86
2022-10-06T11:14:14.090Z,64.96
2022-10-06T11:15:14.254Z,65.16
2022-10-06T11:16:16.225Z,64.55
2022-10-06T11:17:13.263Z,63.54
2022-10-06T11:18:20.724Z,63.54
2022-10-06T11:19:16.473Z,63.21
2022-10-06T11:20:15.745Z,63.92
2022-10-06T11:21:15.340Z,63.51
2022-10-06T11:22:18.334Z,62.90
2022-10-06T11:23:16.908Z,62.30
2022-10-06T11:24:14.156Z,63.24
2022-10-06T11:25:16.268Z,63.41
2022-10-06T11:26:14.415Z,62.40
2022-10-06T11:27:15.152Z,62.07
2022-10-06T11:28:16.215Z,61.33
2022-10-06T11:29:13.263Z,61.00
2022-10-06T11:30:15.433Z,60.36
2022-10-06T11:31:15.698Z,60.66
2022-10-06T11:32:12.937Z,61.71
2022-10-06T11:33:15.988Z,62.01
2022-10-06T11:34:16.216Z,60.72
2022-10-06T11:35:18.708Z,61.94
2022-10-06T11:36:38.087Z,62.04
2022-10-06T11:37:13.880Z,62.14
2022-10-06T11:38:22.346Z,62.85
2022-10-06T11:39:12.856Z,62.95
2022-10-06T11:40:12.639Z,62.64
2022-10-06T11:41:12.907Z,63.08
2022-10-06T11:42:13.530Z,60.25
2022-10-06T11:43:14.438Z,60.85
2022-10-06T11:44:15.004Z,60.35
2022-10-06T11:45:13.426Z,61.66
2022-10-06T11:46:15.129Z,61.25
2022-10-06T11:47:14.888Z,61.39
2022-10-06T11:48:13.978Z,61.90
2022-10-06T11:49:15.040Z,62.81
2022-10-06T11:50:14.591Z,62.40
2022-10-06T11:51:13.828Z,62.77
2022-10-06T11:52:17.777Z,62.27
2022-10-06T11:53:19.195Z,62.27
2022-10-06T11:54:15.386Z,61.73
2022-10-06T11:55:12.755Z,61.10
2022-10-06T11:56:13.313Z,60.77
2022-10-06T11:57:15.610Z,59.63
2022-10-06T11:58:41.883Z,60.03
2022-10-06T11:59:14.367Z,59.56
2022-10-06T12:00:14.872Z,59.56
2022-10-06T12:01:13.147Z,60.13
2022-10-06T12:02:12.734Z,59.63
2022-10-06T12:03:13.797Z,58.49
2022-10-06T12:04:14.073Z,58.56
2022-10-06T12:06:14.832Z,58.09
2022-10-06T12:07:13.672Z,57.58
2022-10-06T12:08:13.814Z,57.65
2022-10-06T12:09:14.447Z,57.58
2022-10-06T12:10:15.878Z,57.38
2022-10-06T12:11:15.694Z,57.58
2022-10-06T12:12:13.428Z,57.18
2022-10-06T12:13:39.983Z,57.71
2022-10-06T12:17:18.480Z,56.07
2022-10-06T12:18:17.375Z,56.35
2022-10-06T12:19:13.046Z,55.39
2022-10-06T12:20:13.145Z,56.72
2022-10-06T12:21:17.204Z,56.85
2022-10-06T12:22:12.669Z,57.56
2022-10-06T12:23:12.151Z,58.52
2022-10-06T12:25:14.549Z,59.78
2022-10-06T12:26:13.580Z,59.58
2022-10-06T12:28:45.596Z,60.19
2022-10-06T12:29:33.695Z,59.58
2022-10-06T12:30:32.746Z,59.86
2022-10-06T12:31:33.958Z,58.52
2022-10-06T12:32:32.471Z,57.81
2022-10-06T12:33:35.867Z,56.88
2022-10-06T12:34:33.876Z,57.28
2022-10-06T12:35:32.251Z,56.55
2022-10-06T12:36:32.067Z,56.15
2022-10-06T12:37:47.966Z,57.05
2022-10-06T12:38:35.095Z,55.91
2022-10-06T12:39:34.035Z,56.62
2022-10-06T12:40:31.950Z,56.75
2022-10-06T12:41:32.048Z,58.29
2022-10-06T12:42:32.309Z,59.47
2022-10-06T12:43:35.910Z,58.89
2022-10-06T12:44:36.437Z,59.30
2022-10-06T12:45:33.046Z,59.50
2022-10-06T12:46:32.084Z,58.89
2022-10-06T12:47:33.903Z,58.89
2022-10-06T12:48:32.592Z,58.59
2022-10-06T12:49:32.437Z,58.49
2022-10-06T12:50:31.953Z,58.49
2022-10-06T12:52:32.927Z,60.53
2022-10-06T12:53:33.180Z,59.12
2022-10-06T12:54:33.159Z,59.22
2022-10-06T12:55:33.224Z,59.02
2022-10-06T12:56:34.907Z,58.45
2022-10-06T12:57:31.936Z,57.74
2022-10-06T12:58:31.913Z,58.54
2022-10-06T12:59:32.182Z,59.35
2022-10-06T13:00:32.581Z,58.34
2022-10-06T13:01:31.876Z,57.74
2022-10-06T13:02:32.518Z,58.75
2022-10-06T13:03:31.981Z,59.05
2022-10-06T13:04:33.997Z,58.54
2022-10-06T13:05:35.169Z,58.14
2022-10-06T13:06:37.555Z,58.75
2022-10-06T13:07:34.301Z,59.05
2022-10-06T13:08:31.717Z,58.78
2022-10-06T13:09:31.785Z,59.08
2022-10-06T13:10:36.731Z,59.38
2022-10-06T13:11:35.851Z,58.78
2022-10-06T13:14:04.204Z,58.67
2022-10-06T13:14:55.975Z,59.38
2022-10-06T13:15:53.123Z,58.98
2022-10-06T13:17:03.158Z,59.18
2022-10-06T13:17:52.459Z,59.18
2022-10-06T13:18:53.506Z,59.18
2022-10-06T13:19:55.272Z,59.08
2022-10-06T13:20:55.934Z,59.78
2022-10-06T13:21:53.313Z,60.29
2022-10-06T13:22:53.927Z,59.58
2022-10-06T13:23:59.735Z,59.58
2022-10-06T13:24:55.338Z,60.39
2022-10-06T13:25:59.052Z,61.00
2022-10-06T13:26:53.507Z,61.60
2022-10-06T13:27:53.198Z,58.87
2022-10-06T13:28:53.576Z,58.47
2022-10-06T13:29:54.897Z,58.58